Earle, AR (72331)

8:16 PM CST on December 10, 2016 (GMT -0600)
West Memphis Municipal | | Change Station

Elev 213 ft 35.14 °N, 90.23 °W | Updated 23 minutes ago

Overcast
Overcast
36 °F
Feels Like 30 °F
N
8
Wind Variable Wind from SE

Today
High -- | Low -- °F
--% Chance of Precip.
Yesterday
High -- | Low -- °F
Precip. -- in
Pressure 30.36 in
Visibility 10.0 miles
Clouds Overcast 6000 ft
Windchill 30 °F
Dew Point 22 °F
Humidity 57%
Rainfall 0.00 in
Snow Depth Not available.
7:00 AM 4:49 PM
Waxing Gibbous, 88% visible
METAR KAWM 110153Z AUTO 14007KT 10SM OVC060 02/M06 A3035 RMK AO2 PRESFR SLP280 T00221056
Pressure 30.36 in
Visibility 10.0 miles
Clouds Overcast 6000 ft
Windchill 30 °F
Dew Point 22 °F
Humidity 57%
Rainfall 0.00 in
Snow Depth Not available.
7:00 AM 4:49 PM
Waxing Gibbous, 88% visible
METAR KAWM 110153Z AUTO 14007KT 10SM OVC060 02/M06 A3035 RMK AO2 PRESFR SLP280 T00221056

10-Day Weather Forecast

Almanac

Astronomy

Dec. 10, 2016 Rise Set
Actual Time
Civil Twilight
Nautical Twilight
Astronomical Twilight
Moon
Length of Visible Light
Length of Day
Tomorrow will be .
, % of the Moon is Illuminated

Today's Extremes

State Highs State Lows

Community

WunderPhotos

Upload Photos

1,956,690 photos uploaded!

WunderBlog® & News

Nearby

Air Quality

  Air Quality AQ Index Pollutant
Not available.

Snow Depth

Station Depth Elevation

Earthquake Activity

City Distance Mag. Time & Date
Minimum magnitude displayed is 2.5.

Coastal Water Temperatures

Place Temperature

Stations

Nearby Weather Stations

Station Location Temp. Windchill Dew Point Humidity Wind Precip. Elev Updated Type
                   

Watches & Warnings

There are currently no watches in effect.